Time;durP1;ratioP1;P1;durP2;ratioP2;P2;SDS_P1;SDS_P2;PMS_P1;PMS_P2;Temp;Humidity;BMP_temperature;BMP_pressure;BME280_temperature;BME280_humidity;BME280_pressure;Samples;Min_cycle;Max_cycle;Signal;HPM_P1;HPM_P2
2021/12/05 00:18:50;;;;;;;16.35;6.40;;;;;;;;;;5062029;28;20107;-72
2021/12/05 00:23:58;;;;;;;15.27;6.65;;;;;;;;;;5070598;28;20040;-72
2021/12/05 00:26:24;;;;;;;13.88;6.25;;;;;;;;;;5055863;28;20041;-72
2021/12/05 00:31:44;;;;;;;13.32;5.72;;;;;;;;;;5071183;28;20032;-72
2021/12/05 00:53:19;;;;;;;14.38;6.07;;;;;;;;;;5060446;28;20514;-72
2021/12/05 00:55:39;;;;;;;13.60;5.30;;;;;;;;;;5062392;28;20517;-72
2021/12/05 01:01:12;;;;;;;17.17;5.50;;;;;;;;;;5053710;28;20071;-72
2021/12/05 01:11:46;;;;;;;16.48;5.82;;;;;;;;;;5071166;28;20052;-71
2021/12/05 01:16:46;;;;;;;12.93;5.55;;;;;;;;;;5057586;28;20060;-72
2021/12/05 01:19:14;;;;;;;12.80;5.82;;;;;;;;;;5070845;28;20117;-72
2021/12/05 01:21:41;;;;;;;13.63;5.55;;;;;;;;;;5070582;28;20044;-72
2021/12/05 01:24:26;;;;;;;14.45;5.93;;;;;;;;;;5068665;28;20051;-72
2021/12/05 01:29:56;;;;;;;13.10;5.43;;;;;;;;;;5065392;28;20049;-72
2021/12/05 01:32:37;;;;;;;15.05;5.72;;;;;;;;;;5074372;28;20044;-71
2021/12/05 01:37:59;;;;;;;13.32;5.88;;;;;;;;;;5072954;28;20093;-71
2021/12/05 01:41:02;;;;;;;8.85;5.40;;;;;;;;;;5059426;28;20045;-71
2021/12/05 01:54:32;;;;;;;15.95;6.45;;;;;;;;;;5072814;28;20403;-72
2021/12/05 02:00:10;;;;;;;13.52;6.97;;;;;;;;;;5104311;22;20044;-65
2021/12/05 02:10:54;;;;;;;23.42;8.57;;;;;;;;;;5107122;28;20047;-64
2021/12/05 02:35:13;;;;;;;28.30;12.30;;;;;;;;;;5113342;28;20050;-64
2021/12/05 02:41:10;;;;;;;26.48;11.45;;;;;;;;;;5113618;28;20040;-64
2021/12/05 02:43:39;;;;;;;27.63;12.50;;;;;;;;;;5084561;28;20040;-64
2021/12/05 02:46:03;;;;;;;27.73;12.20;;;;;;;;;;5112726;28;20050;-65
2021/12/05 02:48:31;;;;;;;32.03;12.30;;;;;;;;;;5113787;28;20416;-65
2021/12/05 02:50:58;;;;;;;24.95;13.05;;;;;;;;;;5113342;28;20047;-64
2021/12/05 02:54:11;;;;;;;26.45;11.95;;;;;;;;;;5113467;28;20036;-65
2021/12/05 02:56:15;;;;;;;23.70;12.00;;;;;;;;;;5102306;28;20040;-64
2021/12/05 03:01:30;;;;;;;29.23;12.68;;;;;;;;;;5112169;28;20043;-65
2021/12/05 03:03:57;;;;;;;36.70;13.02;;;;;;;;;;5111564;28;20044;-65
2021/12/05 03:06:26;;;;;;;23.33;12.68;;;;;;;;;;5112130;28;20040;-64
2021/12/05 03:09:00;;;;;;;24.95;11.75;;;;;;;;;;5113347;28;20516;-65
2021/12/05 03:11:28;;;;;;;27.40;11.88;;;;;;;;;;5111750;28;20051;-64
2021/12/05 03:13:54;;;;;;;27.35;13.05;;;;;;;;;;5112710;28;20043;-65
2021/12/05 03:16:21;;;;;;;27.67;11.55;;;;;;;;;;5094356;28;20039;-64
2021/12/05 03:18:47;;;;;;;26.98;11.82;;;;;;;;;;5094813;28;20084;-65
2021/12/05 03:21:13;;;;;;;27.17;11.27;;;;;;;;;;5113249;28;20084;-65
2021/12/05 03:23:41;;;;;;;28.17;12.00;;;;;;;;;;5111115;28;20508;-65
2021/12/05 03:26:08;;;;;;;24.15;11.65;;;;;;;;;;5109652;28;20031;-65
2021/12/05 03:28:34;;;;;;;23.95;11.35;;;;;;;;;;5110538;28;20063;-64
2021/12/05 03:31:00;;;;;;;30.13;12.10;;;;;;;;;;5110433;28;20115;-64
2021/12/05 03:33:26;;;;;;;24.02;11.48;;;;;;;;;;5110522;28;20493;-65
2021/12/05 03:35:52;;;;;;;25.40;11.55;;;;;;;;;;5111555;28;20042;-65
2021/12/05 03:38:18;;;;;;;28.73;10.55;;;;;;;;;;5104167;28;20043;-64
2021/12/05 03:40:45;;;;;;;20.88;9.57;;;;;;;;;;5093994;28;20077;-65
2021/12/05 03:43:12;;;;;;;25.10;9.43;;;;;;;;;;5094440;28;20096;-64
2021/12/05 03:45:41;;;;;;;24.02;9.73;;;;;;;;;;5112621;28;20039;-64
2021/12/05 03:48:07;;;;;;;21.23;9.23;;;;;;;;;;5112420;28;20051;-65
2021/12/05 03:50:33;;;;;;;19.85;8.38;;;;;;;;;;5112499;28;20598;-65
2021/12/05 03:52:59;;;;;;;16.13;7.75;;;;;;;;;;5111791;28;20031;-64
2021/12/05 03:55:25;;;;;;;20.45;8.68;;;;;;;;;;5111287;28;20036;-65
2021/12/05 03:57:51;;;;;;;21.15;9.15;;;;;;;;;;5111172;28;20046;-65
2021/12/05 04:00:20;;;;;;;15.02;7.80;;;;;;;;;;5090622;28;20036;-65
2021/12/05 04:02:47;;;;;;;23.30;8.48;;;;;;;;;;5111912;28;20578;-65
2021/12/05 04:05:13;;;;;;;15.73;7.85;;;;;;;;;;5107261;28;20040;-65
2021/12/05 04:07:39;;;;;;;19.65;8.07;;;;;;;;;;5111388;28;20064;-64
2021/12/05 04:10:05;;;;;;;21.88;7.70;;;;;;;;;;5094223;28;20075;-65
2021/12/05 04:12:31;;;;;;;13.48;7.15;;;;;;;;;;5090224;28;20489;-64
2021/12/05 04:14:58;;;;;;;23.15;7.97;;;;;;;;;;5112688;28;20043;-65
2021/12/05 04:17:24;;;;;;;20.05;6.80;;;;;;;;;;5093232;28;20044;-64
2021/12/05 04:19:51;;;;;;;18.63;6.90;;;;;;;;;;5105774;28;20031;-64
2021/12/05 04:22:17;;;;;;;14.43;6.60;;;;;;;;;;5108080;28;20035;-64
2021/12/05 04:24:44;;;;;;;14.98;6.80;;;;;;;;;;5106430;28;20547;-65
2021/12/05 04:27:10;;;;;;;17.73;6.30;;;;;;;;;;5108765;28;20043;-64
2021/12/05 04:29:37;;;;;;;17.85;6.85;;;;;;;;;;5092253;28;20036;-65
2021/12/05 04:32:03;;;;;;;22.35;5.88;;;;;;;;;;5093443;28;20039;-65
2021/12/05 04:34:30;;;;;;;15.68;6.13;;;;;;;;;;5076248;28;20059;-65
2021/12/05 04:36:56;;;;;;;16.83;6.10;;;;;;;;;;5112042;28;20073;-65
2021/12/05 04:39:23;;;;;;;16.67;6.18;;;;;;;;;;5093525;28;20047;-64
2021/12/05 04:41:49;;;;;;;18.27;6.47;;;;;;;;;;5111558;28;20036;-64
2021/12/05 04:44:16;;;;;;;16.77;6.22;;;;;;;;;;5092307;28;20052;-64
2021/12/05 04:46:42;;;;;;;16.13;6.88;;;;;;;;;;5105043;28;20567;-64
2021/12/05 04:49:08;;;;;;;16.45;6.22;;;;;;;;;;5085043;28;20059;-64
2021/12/05 04:51:36;;;;;;;18.45;6.38;;;;;;;;;;5103779;28;20055;-64
2021/12/05 04:54:03;;;;;;;18.70;6.05;;;;;;;;;;5110273;28;20446;-64
2021/12/05 04:56:29;;;;;;;13.73;5.70;;;;;;;;;;5103339;28;20067;-64
2021/12/05 04:58:55;;;;;;;14.10;5.40;;;;;;;;;;5103636;28;20039;-64
2021/12/05 05:01:22;;;;;;;21.80;6.93;;;;;;;;;;5106627;28;20443;-64
2021/12/05 05:03:48;;;;;;;16.92;6.40;;;;;;;;;;5104971;28;20036;-64
2021/12/05 05:06:16;;;;;;;19.27;6.60;;;;;;;;;;5096845;28;20437;-64
2021/12/05 05:08:43;;;;;;;15.35;6.28;;;;;;;;;;5089002;28;20051;-64
2021/12/05 05:11:12;;;;;;;15.80;6.32;;;;;;;;;;5095045;28;20036;-65
2021/12/05 05:13:38;;;;;;;16.48;6.72;;;;;;;;;;5101651;28;20369;-64
2021/12/05 05:16:06;;;;;;;16.83;6.53;;;;;;;;;;5110909;28;20035;-64
2021/12/05 05:18:45;;;;;;;19.33;6.30;;;;;;;;;;5091198;28;20061;-64
2021/12/05 05:24:33;;;;;;;17.50;6.25;;;;;;;;;;5114211;28;20035;-64
2021/12/05 05:40:35;;;;;;;16.27;6.10;;;;;;;;;;5110022;28;20040;-65
2021/12/05 05:48:26;;;;;;;19.73;6.68;;;;;;;;;;5104471;28;20489;-64
2021/12/05 05:50:48;;;;;;;18.02;6.32;;;;;;;;;;5110318;28;20129;-64
2021/12/05 05:53:14;;;;;;;17.02;6.32;;;;;;;;;;5112176;28;20122;-65
2021/12/05 05:55:40;;;;;;;18.35;6.18;;;;;;;;;;5103436;28;20360;-64
2021/12/05 05:58:16;;;;;;;14.63;6.20;;;;;;;;;;5105680;28;20043;-65
2021/12/05 06:01:03;;;;;;;17.75;6.20;;;;;;;;;;5104994;28;20042;-64
2021/12/05 06:03:29;;;;;;;18.35;5.90;;;;;;;;;;5089756;28;20043;-64
2021/12/05 06:05:57;;;;;;;14.15;5.88;;;;;;;;;;5108095;28;20067;-64
2021/12/05 06:08:26;;;;;;;19.63;6.55;;;;;;;;;;5111105;28;20032;-64
2021/12/05 06:10:53;;;;;;;19.45;6.57;;;;;;;;;;5109755;28;20494;-64
2021/12/05 06:13:19;;;;;;;14.10;5.93;;;;;;;;;;5098429;28;20397;-64
2021/12/05 06:15:46;;;;;;;19.75;6.00;;;;;;;;;;5108879;28;20048;-64
2021/12/05 06:18:12;;;;;;;11.50;6.03;;;;;;;;;;5108021;28;20450;-64
2021/12/05 06:20:38;;;;;;;18.98;6.13;;;;;;;;;;5110029;27;20201;-64
2021/12/05 06:23:04;;;;;;;17.70;6.05;;;;;;;;;;5087916;28;20423;-64
2021/12/05 06:25:33;;;;;;;19.77;6.38;;;;;;;;;;5107419;28;20031;-64
2021/12/05 06:28:02;;;;;;;17.27;5.57;;;;;;;;;;5108366;28;20042;-64
2021/12/05 06:30:43;;;;;;;18.30;5.85;;;;;;;;;;5111710;28;20055;-64
2021/12/05 06:46:22;;;;;;;13.90;6.90;;;;;;;;;;5109457;28;20555;-64
2021/12/05 06:48:49;;;;;;;14.77;6.50;;;;;;;;;;5110865;28;20039;-64
2021/12/05 06:51:18;;;;;;;20.80;7.80;;;;;;;;;;5093360;28;20504;-64
2021/12/05 06:53:44;;;;;;;21.20;8.13;;;;;;;;;;5102852;28;20038;-64
2021/12/05 06:56:11;;;;;;;23.60;7.88;;;;;;;;;;5108605;28;20036;-64
2021/12/05 06:58:37;;;;;;;21.13;8.63;;;;;;;;;;5110483;28;20043;-64
2021/12/05 07:01:05;;;;;;;26.73;8.30;;;;;;;;;;5108782;28;20160;-64
2021/12/05 07:03:31;;;;;;;18.85;7.88;;;;;;;;;;5109138;28;20071;-64
2021/12/05 07:08:26;;;;;;;19.70;8.00;;;;;;;;;;5109163;28;20047;-64
2021/12/05 07:14:06;;;;;;;21.85;9.43;;;;;;;;;;5108037;28;20049;-64
2021/12/05 07:40:28;;;;;;;17.52;9.32;;;;;;;;;;5104433;28;20036;-65
2021/12/05 07:42:59;;;;;;;18.17;8.95;;;;;;;;;;5110698;28;20409;-65
2021/12/05 07:45:33;;;;;;;19.38;8.70;;;;;;;;;;5102237;28;20489;-65
2021/12/05 07:48:06;;;;;;;18.90;9.43;;;;;;;;;;5093542;28;20118;-65
2021/12/05 07:50:45;;;;;;;22.73;9.50;;;;;;;;;;5105668;28;20101;-65
2021/12/05 07:53:19;;;;;;;19.55;8.98;;;;;;;;;;5090702;28;20055;-65
2021/12/05 07:55:48;;;;;;;24.13;10.45;;;;;;;;;;5112103;28;20040;-65
2021/12/05 08:01:00;;;;;;;18.50;8.23;;;;;;;;;;5109957;28;20097;-65
2021/12/05 08:16:56;;;;;;;19.55;9.40;;;;;;;;;;5103509;28;20088;-65
2021/12/05 08:19:22;;;;;;;18.88;9.23;;;;;;;;;;5114514;27;20031;-65
2021/12/05 08:21:55;;;;;;;22.88;9.20;;;;;;;;;;5122779;27;20032;-65
2021/12/05 08:24:21;;;;;;;23.15;8.93;;;;;;;;;;5111507;28;20510;-65
2021/12/05 08:26:49;;;;;;;17.13;8.07;;;;;;;;;;5093790;28;20047;-65
2021/12/05 08:29:19;;;;;;;18.98;8.55;;;;;;;;;;5093658;28;20051;-65
2021/12/05 08:45:17;;;;;;;17.85;7.78;;;;;;;;;;5111933;28;20134;-65
2021/12/05 09:21:03;;;;;;;13.10;6.70;;;;;;;;;;5099063;28;20043;-65
2021/12/05 09:26:27;;;;;;;18.67;7.53;;;;;;;;;;5100587;28;20039;-64
2021/12/05 10:16:39;;;;;;;14.60;6.10;;;;;;;;;;5113963;28;20046;-64
2021/12/05 10:19:22;;;;;;;14.80;5.25;;;;;;;;;;5111091;28;20489;-65
2021/12/05 10:38:33;;;;;;;16.95;7.72;;;;;;;;;;5114470;28;20040;-64
2021/12/05 10:43:40;;;;;;;13.40;7.30;;;;;;;;;;5106912;28;20036;-65
2021/12/05 10:46:08;;;;;;;14.00;7.85;;;;;;;;;;5107634;28;20039;-64
2021/12/05 10:48:36;;;;;;;15.40;6.57;;;;;;;;;;5111002;28;20071;-64
2021/12/05 10:51:24;;;;;;;13.80;7.22;;;;;;;;;;5105422;28;20051;-65
2021/12/05 10:53:55;;;;;;;13.82;7.20;;;;;;;;;;5110736;28;20100;-65
2021/12/05 10:56:21;;;;;;;11.80;6.60;;;;;;;;;;5113362;28;20035;-64
2021/12/05 10:58:47;;;;;;;13.70;6.80;;;;;;;;;;5111853;28;20035;-64
2021/12/05 11:01:16;;;;;;;17.13;7.05;;;;;;;;;;5104270;28;20066;-64
2021/12/05 11:03:43;;;;;;;15.50;6.60;;;;;;;;;;5088639;28;20528;-64
2021/12/05 11:06:20;;;;;;;12.38;6.40;;;;;;;;;;5093895;28;20044;-64
2021/12/05 11:08:46;;;;;;;13.45;6.55;;;;;;;;;;5070076;22;20037;-70
2021/12/05 11:11:14;;;;;;;12.55;5.90;;;;;;;;;;5051066;28;20048;-70
2021/12/05 11:13:43;;;;;;;10.63;6.50;;;;;;;;;;5051611;28;20037;-70
2021/12/05 11:16:28;;;;;;;13.88;6.50;;;;;;;;;;5048300;28;20116;-70
2021/12/05 11:18:54;;;;;;;12.60;6.40;;;;;;;;;;5035977;28;20132;-70
2021/12/05 11:21:31;;;;;;;11.65;5.90;;;;;;;;;;5032675;28;20076;-70
2021/12/05 11:24:04;;;;;;;9.85;5.18;;;;;;;;;;5028977;28;20041;-70
2021/12/05 11:26:30;;;;;;;12.90;5.85;;;;;;;;;;5025062;28;20109;-70
2021/12/05 11:28:56;;;;;;;11.27;5.95;;;;;;;;;;5024561;28;20049;-70
2021/12/05 11:31:27;;;;;;;17.73;6.05;;;;;;;;;;5031811;28;20065;-70
2021/12/05 11:33:55;;;;;;;8.93;5.88;;;;;;;;;;5027671;28;20046;-70
2021/12/05 11:36:25;;;;;;;10.93;5.15;;;;;;;;;;5021155;28;20045;-70
2021/12/05 11:38:52;;;;;;;13.27;5.30;;;;;;;;;;5029924;28;20037;-70
2021/12/05 11:41:22;;;;;;;13.48;5.32;;;;;;;;;;5032323;28;20280;-71
2021/12/05 11:43:54;;;;;;;11.05;5.45;;;;;;;;;;5032121;28;20041;-70
2021/12/05 11:46:22;;;;;;;12.02;5.55;;;;;;;;;;5031177;28;20030;-70
2021/12/05 11:48:55;;;;;;;11.27;4.63;;;;;;;;;;5031658;28;20036;-70
2021/12/05 11:51:23;;;;;;;11.57;5.35;;;;;;;;;;5031929;28;20041;-70
2021/12/05 11:53:54;;;;;;;8.27;5.30;;;;;;;;;;5029505;28;20076;-71
2021/12/05 11:56:29;;;;;;;8.38;4.63;;;;;;;;;;5032244;28;20069;-70
2021/12/05 11:59:06;;;;;;;11.07;4.78;;;;;;;;;;5031904;28;20368;-71
2021/12/05 12:01:34;;;;;;;9.40;5.10;;;;;;;;;;5031355;28;20037;-71
2021/12/05 12:04:00;;;;;;;9.35;4.57;;;;;;;;;;5032447;28;20068;-70
2021/12/05 12:06:26;;;;;;;9.57;5.25;;;;;;;;;;5031952;28;20484;-71
2021/12/05 12:08:54;;;;;;;10.48;5.05;;;;;;;;;;5030215;28;20120;-70
2021/12/05 12:11:20;;;;;;;6.25;4.38;;;;;;;;;;5028296;28;20041;-71
2021/12/05 12:13:47;;;;;;;7.60;4.78;;;;;;;;;;5028872;28;20041;-70
2021/12/05 12:16:14;;;;;;;8.65;4.85;;;;;;;;;;5031035;28;20057;-70
2021/12/05 12:18:44;;;;;;;8.65;4.75;;;;;;;;;;5030383;28;20484;-70
2021/12/05 12:21:13;;;;;;;7.45;4.38;;;;;;;;;;5021697;28;20280;-71
2021/12/05 12:23:39;;;;;;;5.50;4.40;;;;;;;;;;5026578;28;20041;-71
2021/12/05 12:26:06;;;;;;;7.65;4.55;;;;;;;;;;5030076;28;20052;-71
2021/12/05 12:28:33;;;;;;;9.80;4.75;;;;;;;;;;5031259;28;20037;-70
2021/12/05 12:31:02;;;;;;;7.80;5.00;;;;;;;;;;5031169;28;20034;-70
2021/12/05 12:33:42;;;;;;;7.30;4.68;;;;;;;;;;5025120;28;20048;-71
2021/12/05 12:36:09;;;;;;;8.48;5.10;;;;;;;;;;5031240;28;20172;-70
2021/12/05 12:38:37;;;;;;;13.35;4.70;;;;;;;;;;5029892;28;20494;-71
2021/12/05 12:41:06;;;;;;;7.90;4.85;;;;;;;;;;5031436;28;20041;-70
2021/12/05 12:43:41;;;;;;;9.55;5.30;;;;;;;;;;5031037;28;20052;-70
2021/12/05 12:46:15;;;;;;;9.27;4.90;;;;;;;;;;5031394;28;20050;-70
2021/12/05 12:48:41;;;;;;;6.35;4.38;;;;;;;;;;5030813;28;20041;-71
2021/12/05 12:51:07;;;;;;;7.55;4.53;;;;;;;;;;5030293;28;20234;-70
2021/12/05 12:53:39;;;;;;;6.13;4.68;;;;;;;;;;5031233;28;20418;-70
2021/12/05 12:56:10;;;;;;;9.70;4.90;;;;;;;;;;5030968;28;20052;-70
2021/12/05 12:58:36;;;;;;;6.85;4.60;;;;;;;;;;5030874;28;20069;-71
2021/12/05 13:01:16;;;;;;;6.32;4.40;;;;;;;;;;5030732;28;20114;-71
2021/12/05 13:04:27;;;;;;;6.95;4.53;;;;;;;;;;5030906;28;20042;-71
2021/12/05 13:12:31;;;;;;;11.60;4.65;;;;;;;;;;5028987;28;20037;-71
2021/12/05 13:15:06;;;;;;;7.53;4.55;;;;;;;;;;5030665;28;20037;-73
2021/12/05 13:17:43;;;;;;;7.15;4.55;;;;;;;;;;5030958;28;20121;-71
2021/12/05 13:20:10;;;;;;;7.07;4.45;;;;;;;;;;5029772;28;20117;-71
2021/12/05 13:22:55;;;;;;;5.93;4.30;;;;;;;;;;5031325;28;20037;-71
2021/12/05 13:25:21;;;;;;;9.07;4.53;;;;;;;;;;5030635;28;20412;-71
2021/12/05 13:27:47;;;;;;;6.30;4.60;;;;;;;;;;5035114;28;20480;-71
2021/12/05 13:30:27;;;;;;;8.32;4.60;;;;;;;;;;5034845;28;20558;-71
2021/12/05 13:33:12;;;;;;;9.43;4.50;;;;;;;;;;5035207;28;20040;-71
2021/12/05 13:35:40;;;;;;;6.13;4.60;;;;;;;;;;5034918;28;20049;-71
2021/12/05 13:38:06;;;;;;;8.93;4.72;;;;;;;;;;5034910;28;20117;-71
2021/12/05 13:40:33;;;;;;;13.60;5.60;;;;;;;;;;5033926;28;20041;-71
2021/12/05 13:43:09;;;;;;;9.27;5.55;;;;;;;;;;5034929;28;20084;-71
2021/12/05 13:45:43;;;;;;;9.18;5.53;;;;;;;;;;5035019;28;20053;-71
2021/12/05 13:48:11;;;;;;;9.75;6.00;;;;;;;;;;5034807;28;20053;-71
2021/12/05 13:50:42;;;;;;;8.73;5.65;;;;;;;;;;5034482;28;20539;-71
2021/12/05 13:53:08;;;;;;;8.05;5.70;;;;;;;;;;5034580;28;20041;-71
2021/12/05 13:55:40;;;;;;;5.80;5.05;;;;;;;;;;5034774;28;20124;-71
2021/12/05 13:58:25;;;;;;;7.00;5.15;;;;;;;;;;5033941;28;20037;-71
2021/12/05 14:00:56;;;;;;;9.60;5.53;;;;;;;;;;5021258;28;20037;-71
2021/12/05 14:03:38;;;;;;;7.10;4.60;;;;;;;;;;5034612;28;20488;-71
2021/12/05 14:06:04;;;;;;;8.27;5.60;;;;;;;;;;5015075;28;20108;-71
2021/12/05 14:08:30;;;;;;;9.15;5.57;;;;;;;;;;5015381;28;20045;-71
2021/12/05 14:10:56;;;;;;;6.45;4.78;;;;;;;;;;5033930;28;20041;-71
2021/12/05 14:13:22;;;;;;;7.88;5.22;;;;;;;;;;5034235;28;20064;-71
2021/12/05 14:15:56;;;;;;;8.85;5.03;;;;;;;;;;5034418;28;20127;-71
2021/12/05 14:18:23;;;;;;;9.55;5.10;;;;;;;;;;5032438;28;20132;-71
2021/12/05 14:20:49;;;;;;;6.40;4.57;;;;;;;;;;5034207;28;20037;-70
2021/12/05 14:23:22;;;;;;;6.93;4.65;;;;;;;;;;5034334;28;20083;-71
2021/12/05 14:25:48;;;;;;;8.98;4.68;;;;;;;;;;5032457;28;20614;-71
2021/12/05 14:28:14;;;;;;;5.90;3.92;;;;;;;;;;5015177;28;20495;-71
2021/12/05 14:30:41;;;;;;;8.63;4.32;;;;;;;;;;5014324;28;20125;-71
2021/12/05 14:33:07;;;;;;;6.63;4.50;;;;;;;;;;5033755;28;20045;-72
2021/12/05 14:35:38;;;;;;;7.63;4.65;;;;;;;;;;5033266;28;20045;-72
2021/12/05 14:38:06;;;;;;;6.93;4.75;;;;;;;;;;5032991;28;20034;-72
2021/12/05 14:40:33;;;;;;;9.88;5.57;;;;;;;;;;5033594;28;20495;-72
2021/12/05 14:43:03;;;;;;;21.33;11.65;;;;;;;;;;5032571;28;20055;-72
2021/12/05 14:45:31;;;;;;;23.95;13.82;;;;;;;;;;5031399;28;20561;-72
2021/12/05 14:48:02;;;;;;;7.05;4.65;;;;;;;;;;5032434;28;20091;-71
2021/12/05 14:50:30;;;;;;;;;;;;;;;;;;5033412;28;20088;-72
2021/12/05 14:52:56;;;;;;;5.25;4.25;;;;;;;;;;5031845;28;19991;-72
2021/12/05 14:55:23;;;;;;;7.38;4.70;;;;;;;;;;5028549;28;20664;-72
2021/12/05 14:57:51;;;;;;;10.10;4.95;;;;;;;;;;5031472;28;20128;-71
2021/12/05 15:00:23;;;;;;;6.53;5.10;;;;;;;;;;5030265;28;20053;-71
2021/12/05 15:02:51;;;;;;;7.47;5.35;;;;;;;;;;5031006;28;20069;-73
2021/12/05 15:05:19;;;;;;;6.90;4.68;;;;;;;;;;5030429;28;20161;-73
2021/12/05 15:07:45;;;;;;;6.97;5.10;;;;;;;;;;5021160;28;20045;-73
2021/12/05 15:10:18;;;;;;;7.78;4.93;;;;;;;;;;5029042;28;20044;-73
2021/12/05 15:12:44;;;;;;;7.78;4.95;;;;;;;;;;5027912;28;20053;-73
2021/12/05 15:15:12;;;;;;;7.93;5.15;;;;;;;;;;5028950;28;20037;-73
2021/12/05 15:17:40;;;;;;;7.00;5.05;;;;;;;;;;5028679;28;20491;-73
2021/12/05 15:20:14;;;;;;;7.15;4.97;;;;;;;;;;5030546;28;20037;-73
2021/12/05 15:22:42;;;;;;;8.38;4.95;;;;;;;;;;5027620;28;20124;-73
2021/12/05 15:25:09;;;;;;;7.10;4.40;;;;;;;;;;5027286;28;20045;-73
2021/12/05 15:27:37;;;;;;;8.25;4.93;;;;;;;;;;5029690;28;20052;-71
2021/12/05 15:30:23;;;;;;;10.15;5.28;;;;;;;;;;5044518;28;20069;-71
2021/12/05 15:32:54;;;;;;;7.20;5.40;;;;;;;;;;5035877;28;20122;-71
2021/12/05 15:35:20;;;;;;;8.93;5.85;;;;;;;;;;5031868;28;20041;-71
2021/12/05 15:37:48;;;;;;;6.63;4.90;;;;;;;;;;5032321;28;20040;-71
2021/12/05 15:40:14;;;;;;;9.20;5.65;;;;;;;;;;5032129;28;20049;-71
2021/12/05 15:42:40;;;;;;;8.95;5.53;;;;;;;;;;5031183;28;20037;-71
2021/12/05 15:45:08;;;;;;;8.27;5.50;;;;;;;;;;5031250;28;20498;-71
2021/12/05 15:47:36;;;;;;;10.27;5.22;;;;;;;;;;5031020;28;20052;-71
2021/12/05 15:50:01;;;;;;;7.47;5.32;;;;;;;;;;5031983;28;20106;-71
2021/12/05 15:52:42;;;;;;;8.10;5.50;;;;;;;;;;5031915;28;20582;-71
2021/12/05 15:55:21;;;;;;;8.50;5.50;;;;;;;;;;5028553;28;20038;-71
2021/12/05 15:57:49;;;;;;;12.25;6.07;;;;;;;;;;5030937;28;20045;-71
2021/12/05 16:00:21;;;;;;;8.07;5.65;;;;;;;;;;5030990;28;20112;-70
2021/12/05 16:02:48;;;;;;;10.05;5.97;;;;;;;;;;5031949;28;20160;-70
2021/12/05 16:05:16;;;;;;;10.55;5.40;;;;;;;;;;5031554;28;20128;-70
2021/12/05 16:07:42;;;;;;;9.18;5.68;;;;;;;;;;5030870;28;20041;-71
2021/12/05 16:10:16;;;;;;;8.07;5.97;;;;;;;;;;5038883;28;20098;-70
2021/12/05 16:12:44;;;;;;;9.45;6.15;;;;;;;;;;5038098;28;20152;-70
2021/12/05 16:15:11;;;;;;;10.38;6.53;;;;;;;;;;5031302;28;20073;-71
2021/12/05 16:17:37;;;;;;;10.65;6.30;;;;;;;;;;5030917;28;20523;-71
2021/12/05 16:20:07;;;;;;;9.18;5.93;;;;;;;;;;5031202;28;20041;-71
2021/12/05 16:22:33;;;;;;;10.00;6.78;;;;;;;;;;5031266;28;20521;-71
2021/12/05 16:25:15;;;;;;;9.82;6.47;;;;;;;;;;5028960;28;20037;-70
2021/12/05 16:27:48;;;;;;;9.93;7.00;;;;;;;;;;5030533;28;20049;-71
2021/12/05 16:30:22;;;;;;;10.25;6.90;;;;;;;;;;5023210;28;20046;-70
2021/12/05 16:32:48;;;;;;;8.95;6.95;;;;;;;;;;5031246;28;20041;-70
2021/12/05 16:35:34;;;;;;;9.45;6.70;;;;;;;;;;5031062;28;20084;-70
2021/12/05 16:38:01;;;;;;;9.38;6.70;;;;;;;;;;5030591;28;20041;-70
2021/12/05 16:40:47;;;;;;;9.70;7.32;;;;;;;;;;5030541;28;20463;-71
2021/12/05 16:43:16;;;;;;;10.63;6.82;;;;;;;;;;5030647;28;20077;-70
2021/12/05 16:45:42;;;;;;;15.52;7.63;;;;;;;;;;5030348;28;20034;-70
2021/12/05 16:48:08;;;;;;;10.18;7.10;;;;;;;;;;5030764;28;20120;-71
2021/12/05 16:50:34;;;;;;;11.68;7.72;;;;;;;;;;5030502;28;20041;-70
2021/12/05 16:53:01;;;;;;;11.95;7.32;;;;;;;;;;5030991;28;20034;-70
2021/12/05 16:55:29;;;;;;;10.98;6.97;;;;;;;;;;5030671;28;20049;-71
2021/12/05 16:58:06;;;;;;;13.95;7.80;;;;;;;;;;5029396;28;20049;-70
2021/12/05 17:00:32;;;;;;;13.63;7.38;;;;;;;;;;5016309;28;20045;-71
2021/12/05 17:03:00;;;;;;;14.95;8.43;;;;;;;;;;5037611;28;20084;-71
2021/12/05 17:05:27;;;;;;;14.00;8.73;;;;;;;;;;5037529;28;20049;-71
2021/12/05 17:08:07;;;;;;;15.57;10.65;;;;;;;;;;5063738;22;20051;-63
2021/12/05 17:10:38;;;;;;;22.58;11.13;;;;;;;;;;5076753;28;20489;-63
2021/12/05 17:13:12;;;;;;;17.65;10.27;;;;;;;;;;5097870;28;20040;-63
2021/12/05 17:15:44;;;;;;;17.35;10.55;;;;;;;;;;5092113;28;20043;-63
2021/12/05 17:18:15;;;;;;;17.98;10.60;;;;;;;;;;5090122;28;20525;-63
2021/12/05 17:20:46;;;;;;;13.95;9.77;;;;;;;;;;5072428;28;20112;-63
2021/12/05 17:23:14;;;;;;;18.27;10.68;;;;;;;;;;5068219;28;20036;-63
2021/12/05 17:25:42;;;;;;;16.63;10.32;;;;;;;;;;5084554;28;20043;-63
2021/12/05 17:28:10;;;;;;;16.67;10.48;;;;;;;;;;5087795;28;20040;-63
2021/12/05 17:30:36;;;;;;;19.33;11.45;;;;;;;;;;5089699;28;20386;-63
2021/12/05 17:33:02;;;;;;;22.45;11.88;;;;;;;;;;5085755;28;20093;-63
2021/12/05 17:35:30;;;;;;;19.05;11.38;;;;;;;;;;5070569;28;20044;-62
2021/12/05 17:37:56;;;;;;;22.45;12.15;;;;;;;;;;5092740;28;20039;-63
2021/12/05 17:40:23;;;;;;;17.92;11.90;;;;;;;;;;5071571;28;20330;-63
2021/12/05 17:42:49;;;;;;;21.63;12.45;;;;;;;;;;5097112;28;20036;-63
2021/12/05 17:45:16;;;;;;;23.42;12.07;;;;;;;;;;5096641;28;20031;-63
2021/12/05 17:47:42;;;;;;;21.48;11.10;;;;;;;;;;5088915;28;20393;-63
2021/12/05 17:50:12;;;;;;;21.27;11.30;;;;;;;;;;5089607;28;20059;-63
2021/12/05 17:52:38;;;;;;;21.02;11.60;;;;;;;;;;5089154;28;20038;-63
2021/12/05 17:55:10;;;;;;;20.80;11.18;;;;;;;;;;5087169;28;20126;-63
2021/12/05 17:57:42;;;;;;;19.48;11.05;;;;;;;;;;5087299;28;20048;-63
2021/12/05 18:00:21;;;;;;;22.45;11.30;;;;;;;;;;5054195;28;20459;-62
2021/12/05 18:02:53;;;;;;;21.27;11.68;;;;;;;;;;5086944;28;20059;-63
2021/12/05 18:05:25;;;;;;;19.42;12.00;;;;;;;;;;5093749;28;20468;-63
2021/12/05 18:07:54;;;;;;;20.67;11.43;;;;;;;;;;5087440;28;20079;-63
2021/12/05 18:10:21;;;;;;;25.67;12.13;;;;;;;;;;5092630;28;20105;-63
2021/12/05 18:12:49;;;;;;;21.90;11.68;;;;;;;;;;5077110;28;20052;-63
2021/12/05 18:15:21;;;;;;;22.88;11.48;;;;;;;;;;5090083;28;20055;-63
2021/12/05 18:17:47;;;;;;;20.83;11.60;;;;;;;;;;5094103;28;20048;-63
2021/12/05 18:20:15;;;;;;;19.42;12.02;;;;;;;;;;5073388;28;20039;-63
2021/12/05 18:22:41;;;;;;;28.02;13.23;;;;;;;;;;5087588;28;20043;-63
2021/12/05 18:25:09;;;;;;;21.50;13.98;;;;;;;;;;5087221;28;20176;-63
2021/12/05 18:27:35;;;;;;;24.98;14.90;;;;;;;;;;5073816;28;20047;-63
2021/12/05 18:30:01;;;;;;;24.70;14.45;;;;;;;;;;5089107;28;20516;-63
2021/12/05 18:32:27;;;;;;;29.63;15.43;;;;;;;;;;5082758;28;20032;-63
2021/12/05 18:34:53;;;;;;;28.92;14.82;;;;;;;;;;5093328;28;20072;-63
2021/12/05 18:37:20;;;;;;;33.70;17.50;;;;;;;;;;5092103;28;20499;-63
2021/12/05 18:39:50;;;;;;;37.95;17.67;;;;;;;;;;5086006;28;20067;-63
2021/12/05 18:42:18;;;;;;;36.75;18.33;;;;;;;;;;5091463;28;20400;-63
2021/12/05 18:44:49;;;;;;;36.88;18.77;;;;;;;;;;5088181;28;20054;-63
2021/12/05 18:47:15;;;;;;;41.38;20.63;;;;;;;;;;5075421;28;20047;-63
2021/12/05 18:49:42;;;;;;;37.15;19.15;;;;;;;;;;5093047;28;20036;-63
2021/12/05 18:52:08;;;;;;;41.13;21.52;;;;;;;;;;5087492;28;20483;-63
2021/12/05 18:54:35;;;;;;;39.97;20.33;;;;;;;;;;5087022;28;20038;-63
2021/12/05 18:57:01;;;;;;;43.28;20.77;;;;;;;;;;5093499;28;20067;-62
2021/12/05 18:59:31;;;;;;;40.65;21.45;;;;;;;;;;5090771;28;20070;-62
2021/12/05 19:04:48;;;;;;;42.78;21.63;;;;;;;;;;5091736;28;20079;-62
2021/12/05 19:07:20;;;;;;;41.58;21.40;;;;;;;;;;5081574;28;20066;-63
2021/12/05 19:12:16;;;;;;;43.20;20.77;;;;;;;;;;5072510;28;20490;-62
2021/12/05 19:14:44;;;;;;;49.45;21.60;;;;;;;;;;5087119;28;20052;-62
2021/12/05 19:17:11;;;;;;;43.03;21.50;;;;;;;;;;5100079;28;20476;-63
2021/12/05 19:19:40;;;;;;;45.78;20.88;;;;;;;;;;5088980;28;20115;-63
2021/12/05 19:22:08;;;;;;;38.20;20.10;;;;;;;;;;5073380;28;20044;-62
2021/12/05 19:24:34;;;;;;;40.80;21.08;;;;;;;;;;5081076;28;20150;-62
2021/12/05 19:27:00;;;;;;;43.70;20.75;;;;;;;;;;5083827;28;20094;-62
2021/12/05 19:29:28;;;;;;;41.15;21.13;;;;;;;;;;5079540;28;20047;-62
2021/12/05 19:31:55;;;;;;;47.83;22.75;;;;;;;;;;5059791;28;20064;-62
2021/12/05 19:34:22;;;;;;;44.95;21.63;;;;;;;;;;5067250;28;20483;-62
2021/12/05 19:36:48;;;;;;;40.13;20.75;;;;;;;;;;5086745;28;20074;-62
2021/12/05 19:39:15;;;;;;;43.15;21.17;;;;;;;;;;5085922;28;20539;-62
2021/12/05 19:41:41;;;;;;;45.53;21.98;;;;;;;;;;5085242;28;20071;-62
2021/12/05 19:44:07;;;;;;;43.90;21.50;;;;;;;;;;5085628;28;20129;-62
2021/12/05 19:46:35;;;;;;;44.40;21.83;;;;;;;;;;5088730;28;20383;-62
2021/12/05 19:49:01;;;;;;;42.30;21.65;;;;;;;;;;5078924;28;20122;-62
2021/12/05 19:51:28;;;;;;;48.25;22.63;;;;;;;;;;5089332;28;20036;-62
2021/12/05 19:53:55;;;;;;;43.60;22.23;;;;;;;;;;5070404;28;20099;-62
2021/12/05 19:56:21;;;;;;;43.90;20.83;;;;;;;;;;5069889;28;20048;-62
2021/12/05 19:58:47;;;;;;;41.75;20.55;;;;;;;;;;5089208;28;20500;-63
2021/12/05 20:01:14;;;;;;;44.25;21.35;;;;;;;;;;5085469;28;20033;-62
2021/12/05 20:03:41;;;;;;;39.33;21.17;;;;;;;;;;5085789;28;20035;-62